DAL857 BIKF-LLBG
Flight info
| Callsign | DAL857 |
|---|---|
| Flight time | N/A |
| Altitude | 37000 |
| Route | RIMUM1A RIMUM DCT RUMUX DCT RAPAX DCT 61N018W 60N017W DCT AGORI/N0447F370 DCT OSBOX DCT PEVAN DCT NIBOG DCT MOLAK DCT BAL DCT MORAG DCT NUCHU L607 BIG L15 MOTOX DCT XERAM DCT DIPCE DCT BEGAR DCT TRA DCT GAMSA DCT GEDSO DCT GIMIX DCT AGLIB/N0435F390 DCT DOBOT DCT PESAK DCT VABEK UL603 OLOTA DCT RUGAS UN128 FSK DCT GIKAS DCT MES UL609 ALKIS L609 APLON DCT PIKOG L609 ZUKKO |
| Aircraft | A20N/M-SDE2E3FGHIRWXY/LB1 |
Departure
| Time | 2026-05-06 20:11 |
|---|---|
| Airport | Keflavik International Airport (BIKF) |
Arrival
| Time | N/A |
|---|---|
| Airport | Ben Gurion International Airport (LLBG) |
| Time | Latitude | Longitude | Altitude | Speed | Heading |
|---|---|---|---|---|---|
| 2026-05-06 19:33 | 63.99291 | -22.62440 | 164 ft | 0 kts | 359° |
| 2026-05-06 20:00 | 63.99286 | -22.62439 | 164 ft | 3 kts | 359° |
| 2026-05-06 20:01 | 63.99266 | -22.62438 | 165 ft | 2 kts | 359° |
| 2026-05-06 20:01 | 63.99245 | -22.62438 | 166 ft | 3 kts | 359° |
| 2026-05-06 20:01 | 63.99225 | -22.62436 | 164 ft | 3 kts | 359° |
| 2026-05-06 20:01 | 63.99205 | -22.62432 | 164 ft | 1 kts | 52° |
| 2026-05-06 20:02 | 63.99204 | -22.62446 | 163 ft | 0 kts | 109° |
| 2026-05-06 20:03 | 63.99202 | -22.62432 | 163 ft | 3 kts | 110° |
| 2026-05-06 20:04 | 63.99184 | -22.62338 | 163 ft | 10 kts | 114° |
| 2026-05-06 20:04 | 63.99170 | -22.62155 | 164 ft | 13 kts | 89° |
| 2026-05-06 20:04 | 63.99172 | -22.61949 | 164 ft | 13 kts | 88° |
| 2026-05-06 20:04 | 63.99171 | -22.61740 | 165 ft | 13 kts | 90° |
| 2026-05-06 20:05 | 63.99172 | -22.61527 | 165 ft | 13 kts | 90° |
| 2026-05-06 20:05 | 63.99172 | -22.61313 | 166 ft | 14 kts | 90° |
| 2026-05-06 20:05 | 63.99172 | -22.61098 | 167 ft | 14 kts | 89° |
| 2026-05-06 20:05 | 63.99121 | -22.60950 | 167 ft | 14 kts | 172° |
| 2026-05-06 20:06 | 63.99012 | -22.60946 | 164 ft | 17 kts | 181° |
| 2026-05-06 20:06 | 63.98879 | -22.60948 | 161 ft | 21 kts | 181° |
| 2026-05-06 20:06 | 63.98721 | -22.60944 | 158 ft | 24 kts | 179° |
| 2026-05-06 20:06 | 63.98542 | -22.60944 | 153 ft | 28 kts | 180° |
| 2026-05-06 20:07 | 63.98346 | -22.60938 | 151 ft | 29 kts | 180° |
| 2026-05-06 20:07 | 63.98138 | -22.60949 | 149 ft | 31 kts | 179° |
| 2026-05-06 20:07 | 63.97919 | -22.60948 | 148 ft | 32 kts | 179° |
| 2026-05-06 20:07 | 63.97689 | -22.60944 | 146 ft | 34 kts | 181° |
| 2026-05-06 20:08 | 63.97451 | -22.60942 | 145 ft | 35 kts | 180° |
| 2026-05-06 20:08 | 63.97205 | -22.60949 | 144 ft | 36 kts | 180° |
| 2026-05-06 20:08 | 63.96951 | -22.60945 | 142 ft | 37 kts | 179° |
| 2026-05-06 20:08 | 63.96722 | -22.60946 | 141 ft | 18 kts | 180° |
| 2026-05-06 20:09 | 63.96649 | -22.60946 | 140 ft | 12 kts | 180° |
| 2026-05-06 20:09 | 63.96551 | -22.60945 | 140 ft | 16 kts | 179° |
| 2026-05-06 20:09 | 63.96461 | -22.60839 | 139 ft | 16 kts | 99° |
| 2026-05-06 20:09 | 63.96470 | -22.60588 | 138 ft | 16 kts | 63° |
| 2026-05-06 20:10 | 63.96577 | -22.60543 | 139 ft | 34 kts | 360° |
| 2026-05-06 20:10 | 63.96986 | -22.60532 | 143 ft | 91 kts | 359° |
| 2026-05-06 20:10 | 63.97775 | -22.60543 | 151 ft | 134 kts | 358° |
| 2026-05-06 20:10 | 63.98741 | -22.60565 | 551 ft | 138 kts | 358° |
| 2026-05-06 20:11 | 63.99677 | -22.60665 | 1109 ft | 138 kts | 357° |
| 2026-05-06 20:11 | 64.00621 | -22.60780 | 1783 ft | 133 kts | 359° |
| 2026-05-06 20:11 | 64.01571 | -22.60839 | 2166 ft | 148 kts | 1° |
| 2026-05-06 20:11 | 64.02365 | -22.60851 | 2428 ft | 160 kts | 2° |
| 2026-05-06 20:12 | 64.03542 | -22.60844 | 2776 ft | 179 kts | 2° |
| 2026-05-06 20:12 | 64.04795 | -22.60468 | 3107 ft | 193 kts | 22° |
| 2026-05-06 20:12 | 64.05866 | -22.58662 | 3670 ft | 197 kts | 51° |
| 2026-05-06 20:12 | 64.06432 | -22.55771 | 4304 ft | 210 kts | 75° |
| 2026-05-06 20:13 | 64.06537 | -22.53772 | 4645 ft | 220 kts | 83° |
| 2026-05-06 20:13 | 64.06558 | -22.50347 | 5294 ft | 229 kts | 87° |
| 2026-05-06 20:13 | 64.06472 | -22.46715 | 6111 ft | 233 kts | 95° |
| 2026-05-06 20:13 | 64.05796 | -22.43295 | 6857 ft | 245 kts | 128° |
| 2026-05-06 20:14 | 64.04444 | -22.40942 | 7448 ft | 262 kts | 156° |
| 2026-05-06 20:14 | 64.02640 | -22.39953 | 8038 ft | 275 kts | 169° |
| 2026-05-06 20:14 | 64.00781 | -22.39148 | 8478 ft | 288 kts | 168° |